Time;durP1;ratioP1;P1;durP2;ratioP2;P2;SDS_P1;SDS_P2;PMS_P1;PMS_P2;Temp;Humidity;BMP_temperature;BMP_pressure;BME280_temperature;BME280_humidity;BME280_pressure;Samples;Min_cycle;Max_cycle;Signal;HPM_P1;HPM_P2
2024/02/10 00:00:20;;;;;;;4.07;3.70;;;;;;;9.18;100.00;99471.66;4868688;29;20104;-75
2024/02/10 00:02:47;;;;;;;;;;;;;;;9.83;100.00;99584.47;4869403;29;20045;-74
2024/02/10 00:05:13;;;;;;;4.95;3.80;;;;;;;9.24;100.00;99488.16;4873290;29;19961;-78
2024/02/10 00:07:41;;;;;;;5.85;5.50;;;;;;;9.67;100.00;99555.81;4869883;29;20164;-74
2024/02/10 00:10:06;;;;;;;3.25;3.10;;;;;;;9.30;100.00;99506.44;4871795;29;20049;-76
2024/02/10 00:12:32;;;;;;;2.70;2.40;;;;;;;9.15;100.00;99490.00;4870689;29;20048;-76
2024/02/10 00:15:00;;;;;;;6.40;5.75;;;;;;;9.23;100.00;99493.41;4871639;29;20127;-75
2024/02/10 00:17:26;;;;;;;5.05;4.57;;;;;;;8.83;100.00;99416.16;4867913;29;20503;-76
2024/02/10 00:19:56;;;;;;;0.68;0.68;;;;;;;9.74;100.00;99580.22;4866608;29;20057;-74
2024/02/10 00:22:22;;;;;;;1.45;1.38;;;;;;;9.82;100.00;99595.84;4867537;29;20048;-75
2024/02/10 00:24:48;;;;;;;3.75;3.45;;;;;;;9.85;100.00;99606.28;4864978;29;20043;-75
2024/02/10 00:27:16;;;;;;;2.38;2.17;;;;;;;9.82;100.00;99577.50;4868754;29;20556;-76
2024/02/10 00:29:45;;;;;;;6.15;4.38;;;;;;;9.84;100.00;99554.78;4870480;29;20052;-74
2024/02/10 00:32:10;;;;;;;3.85;2.33;;;;;;;9.79;100.00;99572.31;4871410;29;20053;-75
2024/02/10 00:34:39;;;;;;;1.00;0.88;;;;;;;9.38;100.00;99557.84;4870013;29;20055;-76
2024/02/10 00:37:06;;;;;;;7.03;4.05;;;;;;;9.81;100.00;99581.00;4869005;29;20048;-76
2024/02/10 00:39:31;;;;;;;6.13;5.70;;;;;;;9.23;100.00;99470.72;4869971;29;20131;-74
2024/02/10 00:41:57;;;;;;;5.57;4.15;;;;;;;9.43;100.00;99498.44;4870667;29;20533;-76
2024/02/10 00:44:23;;;;;;;0.60;0.60;;;;;;;9.74;100.00;99543.53;4873819;29;20513;-74
2024/02/10 00:46:49;;;;;;;4.93;4.50;;;;;;;9.38;100.00;99477.53;4871721;29;20858;-76
2024/02/10 00:49:14;;;;;;;5.70;3.58;;;;;;;9.18;100.00;99440.25;4872575;29;20072;-75
2024/02/10 00:51:40;;;;;;;0.20;0.20;;;;;;;9.78;100.00;99544.34;4851184;29;20061;-76
2024/02/10 00:54:06;;;;;;;0.50;0.50;;;;;;;9.64;100.00;99529.63;4870683;29;20053;-75
2024/02/10 00:56:32;;;;;;;3.50;2.58;;;;;;;9.50;100.00;99516.72;4870328;29;20549;-74
2024/02/10 00:58:59;;;;;;;5.82;4.45;;;;;;;9.05;100.00;99437.72;4870005;29;20045;-75
2024/02/10 01:01:28;;;;;;;6.47;4.57;;;;;;;9.20;100.00;99446.31;4872074;29;20033;-74
2024/02/10 01:03:55;;;;;;;12.15;3.05;;;;;;;9.61;100.00;99518.34;4873126;29;20063;-75
2024/02/10 01:06:21;;;;;;;8.68;1.55;;;;;;;9.46;100.00;99483.59;4868458;29;20049;-75
2024/02/10 01:08:50;;;;;;;2.85;2.58;;;;;;;9.91;100.00;99543.34;4869092;29;20152;-76
2024/02/10 01:11:16;;;;;;;3.53;2.70;;;;;;;9.06;100.00;99438.59;4866169;29;20501;-74
2024/02/10 01:13:43;;;;;;;7.35;3.85;;;;;;;9.65;100.00;99522.69;4865948;29;20072;-76
2024/02/10 01:16:14;;;;;;;1.02;0.93;;;;;;;9.37;100.00;99519.47;4873832;29;20120;-74
2024/02/10 01:18:44;;;;;;;3.42;3.13;;;;;;;9.13;100.00;99440.31;4871278;29;20062;-77
2024/02/10 01:21:10;;;;;;;23.83;4.65;;;;;;;9.22;100.00;99440.19;4866974;29;20576;-76
2024/02/10 01:23:41;;;;;;;0.85;0.85;;;;;;;9.14;100.00;99455.09;4863654;29;20057;-76
2024/02/10 01:26:12;;;;;;;4.55;3.67;;;;;;;9.69;100.00;99530.50;4868604;29;20052;-78
2024/02/10 01:28:38;;;;;;;0.95;0.95;;;;;;;9.14;100.00;99438.53;4866428;29;25432;-74
2024/02/10 01:31:08;;;;;;;3.28;2.53;;;;;;;9.32;100.00;99459.31;4866998;29;20060;-74
2024/02/10 01:33:34;;;;;;;3.70;3.40;;;;;;;9.67;100.00;99505.19;4865209;29;20374;-77
2024/02/10 01:36:03;;;;;;;1.88;1.70;;;;;;;9.59;100.00;99504.41;4866990;29;20493;-76
2024/02/10 01:38:37;;;;;;;6.03;4.88;;;;;;;9.46;100.00;99508.91;4870122;29;20131;-76
2024/02/10 01:41:03;;;;;;;1.50;0.98;;;;;;;8.94;100.00;99425.63;4869244;29;20061;-76
2024/02/10 01:43:30;;;;;;;6.10;4.03;;;;;;;9.44;100.00;99508.91;4872129;29;20045;-75
2024/02/10 01:45:56;;;;;;;4.40;3.13;;;;;;;9.43;100.00;99516.78;4871691;29;20057;-76
2024/02/10 01:48:22;;;;;;;16.25;15.10;;;;;;;8.98;100.00;99422.13;4867973;29;20132;-76
2024/02/10 01:50:48;;;;;;;0.40;0.40;;;;;;;9.29;100.00;99496.84;4868764;29;20052;-75
2024/02/10 01:53:14;;;;;;;3.17;2.38;;;;;;;9.45;100.00;99507.16;4867232;29;20442;-75
2024/02/10 01:55:41;;;;;;;10.43;5.03;;;;;;;8.92;100.00;99416.94;4866944;29;20552;-75
2024/02/10 01:58:10;;;;;;;3.33;2.70;;;;;;;9.43;100.00;99495.81;4869924;29;20085;-75
2024/02/10 02:00:37;;;;;;;9.50;2.85;;;;;;;9.38;100.00;99521.19;4866427;29;20092;-75
2024/02/10 02:03:03;;;;;;;7.57;5.65;;;;;;;9.06;100.00;99496.16;4868326;29;20061;-75
2024/02/10 02:05:32;;;;;;;1.10;1.00;;;;;;;8.78;100.00;99419.66;4869368;29;20048;-76
2024/02/10 02:08:05;;;;;;;3.45;3.13;;;;;;;8.74;100.00;99438.91;4868878;29;20143;-75
2024/02/10 02:10:31;;;;;;;3.45;1.55;;;;;;;8.76;100.00;99424.94;4867617;29;20048;-75
2024/02/10 02:12:57;;;;;;;4.60;3.67;;;;;;;8.64;100.00;99414.59;4867197;29;20494;-76
2024/02/10 02:15:27;;;;;;;0.50;0.47;;;;;;;9.28;100.00;99520.41;4864689;29;20112;-75
2024/02/10 02:17:55;;;;;;;0.40;0.40;;;;;;;9.40;100.00;99524.66;4866443;29;20144;-77
2024/02/10 02:20:22;;;;;;;2.22;1.80;;;;;;;9.35;100.00;99535.19;4869169;29;20458;-76
2024/02/10 02:22:49;;;;;;;4.25;3.95;;;;;;;9.23;100.00;99537.91;4867067;29;20061;-75
2024/02/10 02:25:15;;;;;;;0.73;0.73;;;;;;;9.32;100.00;99531.72;4868795;29;20051;-74
2024/02/10 02:27:41;;;;;;;20.00;2.67;;;;;;;8.64;100.00;99425.91;4871605;29;20056;-74
2024/02/10 02:30:07;;;;;;;4.85;4.45;;;;;;;9.32;100.00;99521.22;4873271;29;20524;-75
2024/02/10 02:32:34;;;;;;;0.50;0.50;;;;;;;9.17;100.00;99501.31;4870261;29;20049;-78
2024/02/10 02:35:08;;;;;;;1.40;1.30;;;;;;;8.71;100.00;99434.56;4852196;29;20544;-77
2024/02/10 02:37:42;;;;;;;0.30;0.30;;;;;;;9.05;100.00;99484.84;4865157;29;20052;-75
2024/02/10 02:40:09;;;;;;;5.15;4.18;;;;;;;9.23;100.00;99519.59;4870627;29;20049;-74
2024/02/10 02:42:35;;;;;;;0.95;0.95;;;;;;;9.12;100.00;99501.34;4870219;29;20053;-76
2024/02/10 02:45:06;;;;;;;0.45;0.45;;;;;;;9.01;100.00;99497.97;4872103;29;20053;-76
2024/02/10 02:47:32;;;;;;;0.30;0.30;;;;;;;8.72;100.00;99514.75;4870622;29;20075;-75
2024/02/10 02:50:01;;;;;;;6.78;4.30;;;;;;;8.29;100.00;99412.19;4864973;29;20045;-76
2024/02/10 02:52:32;;;;;;;0.73;0.60;;;;;;;9.17;100.00;99522.25;4873652;29;20091;-75
2024/02/10 02:54:59;;;;;;;5.13;3.80;;;;;;;9.21;100.00;99527.44;4840832;29;20072;-75
2024/02/10 02:57:25;;;;;;;4.72;4.53;;;;;;;8.68;100.00;99418.03;4871111;29;20069;-76
2024/02/10 02:59:52;;;;;;;0.50;0.50;;;;;;;9.11;100.00;99519.69;4872636;29;20084;-75
2024/02/10 03:02:18;;;;;;;2.17;2.08;;;;;;;8.58;100.00;99398.94;4870451;29;20062;-74
2024/02/10 03:04:44;;;;;;;0.80;0.80;;;;;;;8.69;100.00;99404.94;4864553;29;20060;-76
2024/02/10 03:07:14;;;;;;;5.97;4.38;;;;;;;8.53;100.00;99435.56;4872827;29;20385;-74
2024/02/10 03:09:44;;;;;;;3.90;3.60;;;;;;;9.24;100.00;99521.31;4877944;29;20056;-77
2024/02/10 03:12:11;;;;;;;1.48;1.38;;;;;;;9.34;100.00;99528.22;4886175;29;20060;-77
2024/02/10 03:14:41;;;;;;;1.08;1.08;;;;;;;9.34;100.00;99523.00;4872701;29;20546;-78
2024/02/10 03:17:10;;;;;;;0.93;0.93;;;;;;;9.17;100.00;99525.72;4873441;29;20486;-77
2024/02/10 03:19:40;;;;;;;5.10;4.57;;;;;;;9.18;100.00;99539.72;4868844;29;20833;-75
2024/02/10 03:22:06;;;;;;;2.97;2.70;;;;;;;8.84;100.00;99454.50;4872378;29;20066;-78
2024/02/10 03:24:33;;;;;;;3.22;2.80;;;;;;;9.15;100.00;99524.00;4872604;29;20052;-77
2024/02/10 03:27:00;;;;;;;5.18;3.33;;;;;;;8.54;100.00;99416.38;4873609;29;20057;-77
2024/02/10 03:29:28;;;;;;;19.08;4.95;;;;;;;8.64;100.00;99425.91;4874304;29;20048;-76
2024/02/10 03:31:55;;;;;;;0.30;0.30;;;;;;;9.24;100.00;99529.16;4870396;29;20107;-74
2024/02/10 03:34:21;;;;;;;0.22;0.22;;;;;;;9.11;100.00;99512.72;4872907;29;20496;-77
2024/02/10 03:36:48;;;;;;;0.50;0.40;;;;;;;9.37;100.00;99540.41;4873324;29;20064;-76
2024/02/10 03:39:14;;;;;;;4.13;3.65;;;;;;;9.45;100.00;99546.44;4874552;29;20041;-75
2024/02/10 03:41:40;;;;;;;0.68;0.65;;;;;;;9.52;100.00;99535.88;4872427;29;20045;-74
2024/02/10 03:44:05;;;;;;;1.70;1.60;;;;;;;8.81;100.00;99430.97;4872817;29;20138;-75
2024/02/10 03:46:31;;;;;;;3.40;3.25;;;;;;;8.88;100.00;99453.59;4870181;29;20037;-75
2024/02/10 03:48:59;;;;;;;4.65;4.25;;;;;;;9.18;100.00;99531.84;4875972;29;20389;-75
2024/02/10 03:51:29;;;;;;;1.08;0.98;;;;;;;9.13;100.00;99520.53;4871599;29;20083;-76
2024/02/10 03:53:58;;;;;;;2.25;2.15;;;;;;;9.18;100.00;99531.84;4872634;29;20053;-78
2024/02/10 03:56:24;;;;;;;1.67;1.48;;;;;;;9.19;100.00;99521.34;4872841;29;20086;-79
2024/02/10 03:58:50;;;;;;;0.98;0.95;;;;;;;9.21;100.00;99508.25;4871315;29;20091;-77
2024/02/10 04:01:16;;;;;;;6.95;6.55;;;;;;;9.29;100.00;99532.59;4872630;29;20080;-77
2024/02/10 04:03:44;;;;;;;0.40;0.40;;;;;;;8.87;100.00;99464.06;4872491;29;20087;-78
2024/02/10 04:06:18;;;;;;;0.30;0.30;;;;;;;9.08;100.00;99504.88;4868779;29;20114;-80
2024/02/10 04:08:47;;;;;;;0.30;0.30;;;;;;;8.82;100.00;99463.25;4871272;29;20485;-77
2024/02/10 04:11:13;;;;;;;7.57;3.95;;;;;;;9.41;100.00;99542.09;4873429;29;20041;-78
2024/02/10 04:13:41;;;;;;;1.00;1.00;;;;;;;8.77;100.00;99436.25;4872110;29;20057;-78
2024/02/10 04:16:10;;;;;;;3.15;2.95;;;;;;;9.27;100.00;99534.38;4874815;29;20041;-77
2024/02/10 04:18:37;;;;;;;1.65;1.55;;;;;;;9.27;100.00;99547.44;4872631;29;20061;-76
2024/02/10 04:21:04;;;;;;;4.45;3.95;;;;;;;9.45;100.00;99543.81;4870351;29;20049;-78
2024/02/10 04:23:32;;;;;;;4.05;3.33;;;;;;;9.44;100.00;99555.19;4870813;29;20140;-78
2024/02/10 04:26:02;;;;;;;0.43;0.43;;;;;;;8.69;100.00;99419.78;4872439;29;20053;-80
2024/02/10 04:28:29;;;;;;;1.30;1.20;;;;;;;9.24;100.00;99522.19;4873041;29;20037;-78
2024/02/10 04:30:55;;;;;;;0.50;0.50;;;;;;;8.69;100.00;99444.19;4872759;29;20131;-77
2024/02/10 04:33:22;;;;;;;1.80;1.70;;;;;;;8.66;100.00;99439.84;4871977;29;20065;-79
2024/02/10 04:35:48;;;;;;;3.88;3.63;;;;;;;9.20;100.00;99525.72;4872977;29;20041;-78
2024/02/10 04:38:13;;;;;;;0.20;0.20;;;;;;;9.17;100.00;99532.72;4872036;29;20057;-77
2024/02/10 04:40:39;;;;;;;0.30;0.30;;;;;;;9.26;100.00;99548.34;4864512;29;20059;-77
2024/02/10 04:43:05;;;;;;;7.10;4.78;;;;;;;8.74;100.00;99465.91;4871662;29;20093;-77
2024/02/10 04:45:33;;;;;;;2.47;1.98;;;;;;;8.86;100.00;99507.66;4872664;29;20033;-76
2024/02/10 04:48:03;;;;;;;0.82;0.82;;;;;;;8.96;100.00;99508.47;4872681;29;20132;-77
2024/02/10 04:50:30;;;;;;;2.83;2.55;;;;;;;8.53;100.00;99448.66;4869679;29;20058;-78
2024/02/10 04:52:58;;;;;;;0.85;0.70;;;;;;;9.09;100.00;99532.78;4869237;29;20156;-77
2024/02/10 04:55:24;;;;;;;1.05;1.05;;;;;;;8.66;100.00;99475.56;4871810;29;20546;-76
2024/02/10 04:57:51;;;;;;;0.30;0.30;;;;;;;9.23;100.00;99564.09;4868813;29;20033;-77
2024/02/10 05:00:20;;;;;;;5.53;5.03;;;;;;;8.90;100.00;99512.88;4871618;29;20148;-76
2024/02/10 05:02:47;;;;;;;0.20;0.20;;;;;;;9.21;100.00;99566.72;4869625;29;20174;-75
2024/02/10 05:05:14;;;;;;;1.58;1.48;;;;;;;9.13;100.00;99536.25;4870638;29;20060;-79
2024/02/10 05:07:45;;;;;;;13.57;5.25;;;;;;;9.15;100.00;99551.03;4869863;29;20077;-76
2024/02/10 05:10:11;;;;;;;0.90;0.90;;;;;;;8.92;100.00;99530.31;4871876;29;20044;-77
2024/02/10 05:12:38;;;;;;;4.22;3.63;;;;;;;9.20;100.00;99562.38;4868067;29;20045;-76
2024/02/10 05:15:08;;;;;;;2.50;1.23;;;;;;;9.19;100.00;99557.13;4854297;29;20192;-77
2024/02/10 05:17:36;;;;;;;7.97;7.68;;;;;;;8.54;100.00;99459.97;4872777;29;20124;-75
2024/02/10 05:20:13;;;;;;;4.13;3.72;;;;;;;9.01;100.00;99542.44;4872013;29;20040;-76
2024/02/10 05:22:42;;;;;;;5.50;3.15;;;;;;;9.16;100.00;99560.66;4871497;29;20057;-76
2024/02/10 05:25:10;;;;;;;0.45;0.45;;;;;;;8.66;100.00;99520.00;4870122;29;20045;-76
2024/02/10 05:27:37;;;;;;;0.63;0.63;;;;;;;8.82;100.00;99544.31;4879402;29;20048;-76
2024/02/10 05:30:03;;;;;;;4.35;3.05;;;;;;;9.07;100.00;99576.41;4879198;29;20045;-76
2024/02/10 05:32:28;;;;;;;1.00;1.00;;;;;;;9.08;100.00;99575.53;4882680;29;20128;-75
2024/02/10 05:34:54;;;;;;;2.70;2.60;;;;;;;9.03;100.00;99574.69;4880038;29;20445;-76
2024/02/10 05:37:20;;;;;;;5.25;4.88;;;;;;;8.94;100.00;99573.00;4872106;29;20128;-76
2024/02/10 05:39:45;;;;;;;1.02;0.95;;;;;;;9.01;100.00;99579.97;4866238;29;20481;-76
2024/02/10 05:42:11;;;;;;;1.77;1.70;;;;;;;9.03;100.00;99583.41;4869821;29;20564;-75
2024/02/10 05:44:40;;;;;;;0.57;0.57;;;;;;;9.03;100.00;99578.19;4871659;29;20068;-77
2024/02/10 05:47:06;;;;;;;2.00;1.90;;;;;;;9.11;100.00;99572.00;4857582;29;20425;-75
2024/02/10 05:49:34;;;;;;;4.53;3.78;;;;;;;9.19;100.00;99580.69;4869135;29;20029;-75
2024/02/10 05:52:00;;;;;;;0.50;0.50;;;;;;;8.59;100.00;99485.22;4854388;29;20092;-75
2024/02/10 05:54:29;;;;;;;7.63;4.35;;;;;;;8.82;100.00;99565.25;4869665;29;20092;-76
2024/02/10 05:56:54;;;;;;;1.60;1.50;;;;;;;8.75;100.00;99556.56;4870725;29;20069;-76
2024/02/10 05:59:20;;;;;;;2.20;2.00;;;;;;;8.97;100.00;99577.38;4875398;29;20056;-77
2024/02/10 06:01:47;;;;;;;0.63;0.63;;;;;;;8.99;100.00;99594.81;4874953;29;20069;-78
2024/02/10 06:04:14;;;;;;;6.22;4.00;;;;;;;8.71;100.00;99533.06;4874273;29;20414;-75
2024/02/10 06:06:40;;;;;;;7.53;4.63;;;;;;;8.82;100.00;99566.13;4874172;29;20049;-75
2024/02/10 06:09:07;;;;;;;4.07;3.22;;;;;;;9.24;100.00;99610.31;4870773;29;20120;-76
2024/02/10 06:11:33;;;;;;;3.38;2.85;;;;;;;9.15;100.00;99597.28;4875814;29;20088;-75
2024/02/10 06:13:59;;;;;;;5.63;5.10;;;;;;;9.08;100.00;99586.88;4877513;29;20459;-78
2024/02/10 06:16:26;;;;;;;8.23;5.28;;;;;;;9.30;100.00;99607.66;4873630;29;20453;-77
2024/02/10 06:18:52;;;;;;;11.80;11.15;;;;;;;9.35;100.00;99611.09;4877441;29;20043;-75
2024/02/10 06:21:18;;;;;;;2.10;2.00;;;;;;;9.02;100.00;99563.38;4877141;29;20086;-76
2024/02/10 06:23:44;;;;;;;12.20;11.50;;;;;;;8.78;100.00;99522.56;4877339;29;20040;-75
2024/02/10 06:26:13;;;;;;;6.03;5.43;;;;;;;9.34;100.00;99609.38;4877107;29;20057;-76
2024/02/10 06:28:39;;;;;;;2.22;1.25;;;;;;;8.96;100.00;99542.47;4873437;29;20060;-77
2024/02/10 06:31:05;;;;;;;3.13;2.88;;;;;;;9.42;100.00;99625.03;4878433;29;20045;-76
2024/02/10 06:33:30;;;;;;;1.10;1.00;;;;;;;8.85;100.00;99512.94;4876405;29;20056;-75
2024/02/10 06:36:00;;;;;;;5.10;4.13;;;;;;;9.53;100.00;99623.19;4877281;29;20131;-75
2024/02/10 06:38:32;;;;;;;0.38;0.38;;;;;;;8.93;100.00;99520.72;4874071;29;20053;-75
2024/02/10 06:41:03;;;;;;;0.60;0.60;;;;;;;8.95;100.00;99519.81;4872792;29;20049;-76
2024/02/10 06:43:31;;;;;;;3.20;2.38;;;;;;;9.62;100.00;99617.88;4875705;29;20047;-75
2024/02/10 06:46:00;;;;;;;3.10;2.78;;;;;;;9.24;100.00;99540.50;4859586;29;20029;-74
2024/02/10 06:48:27;;;;;;;9.98;9.43;;;;;;;9.02;100.00;99504.94;4874903;29;20072;-75
2024/02/10 06:50:54;;;;;;;3.63;3.25;;;;;;;9.39;100.00;99575.28;4876735;29;20088;-77
2024/02/10 06:53:20;;;;;;;9.30;5.53;;;;;;;9.57;100.00;99603.91;4875329;29;20071;-74
2024/02/10 06:55:46;;;;;;;1.80;1.45;;;;;;;9.74;100.00;99611.66;4875732;29;20045;-74
2024/02/10 06:58:12;;;;;;;14.70;7.28;;;;;;;9.78;100.00;99612.47;4876940;29;20096;-77
2024/02/10 07:00:40;;;;;;;0.40;0.40;;;;;;;9.82;100.00;99611.56;4874148;29;20143;-75
2024/02/10 07:03:06;;;;;;;1.45;1.35;;;;;;;9.82;100.00;99606.31;4871779;29;20129;-76
2024/02/10 07:05:37;;;;;;;6.80;5.32;;;;;;;9.42;100.00;99529.00;4874501;29;20128;-75
2024/02/10 07:08:05;;;;;;;8.45;7.97;;;;;;;9.57;100.00;99546.31;4875883;29;20052;-75
2024/02/10 07:10:31;;;;;;;0.40;0.40;;;;;;;9.55;100.00;99531.50;4872692;29;20083;-75
2024/02/10 07:12:57;;;;;;;0.77;0.77;;;;;;;9.44;100.00;99503.69;4874915;29;20541;-75
2024/02/10 07:15:29;;;;;;;2.05;1.90;;;;;;;10.25;100.00;99629.44;4870952;29;20060;-77
2024/02/10 07:17:55;;;;;;;0.57;0.57;;;;;;;10.27;100.00;99612.81;4874009;29;20568;-75
2024/02/10 07:20:25;;;;;;;3.80;3.47;;;;;;;10.39;100.00;99613.59;4871182;29;20064;-75
2024/02/10 07:22:54;;;;;;;0.30;0.30;;;;;;;10.64;100.00;99636.00;4850548;29;20502;-73
2024/02/10 07:25:32;;;;;;;4.22;3.67;;;;;;;10.32;100.00;99531.50;4867183;29;20041;-73
2024/02/10 07:28:01;;;;;;;2.90;2.75;;;;;;;11.04;100.00;99630.19;4872764;29;20052;-73
2024/02/10 07:30:28;;;;;;;1.75;1.65;;;;;;;11.14;100.00;99629.19;4873203;29;20085;-74
2024/02/10 07:32:56;;;;;;;2.85;2.65;;;;;;;10.71;100.00;99540.56;4860721;29;20049;-74
2024/02/10 07:35:22;;;;;;;0.73;0.73;;;;;;;11.25;100.00;99620.28;4874331;29;20101;-73
2024/02/10 07:37:48;;;;;;;4.30;2.88;;;;;;;10.59;100.00;99518.91;4875615;29;20131;-74
2024/02/10 07:40:14;;;;;;;7.93;4.60;;;;;;;10.97;100.00;99562.94;4875256;29;20049;-73
2024/02/10 07:42:40;;;;;;;4.55;2.80;;;;;;;11.05;100.00;99557.56;4873687;29;20052;-73
2024/02/10 07:45:07;;;;;;;2.35;2.10;;;;;;;11.03;100.00;99539.22;4870659;29;20060;-73
2024/02/10 07:47:32;;;;;;;2.38;2.15;;;;;;;11.54;100.00;99604.91;4868584;29;20787;-74
2024/02/10 07:49:59;;;;;;;5.68;5.18;;;;;;;11.72;100.00;99629.13;4848141;29;20057;-74
2024/02/10 07:52:30;;;;;;;6.80;4.28;;;;;;;11.30;100.00;99568.53;4875585;29;20056;-75
2024/02/10 07:54:58;;;;;;;3.17;2.90;;;;;;;11.65;100.00;99620.47;4869858;29;20573;-74
2024/02/10 07:57:25;;;;;;;4.20;3.55;;;;;;;11.34;100.00;99580.75;4869856;29;20053;-73
2024/02/10 07:59:57;;;;;;;7.80;3.85;;;;;;;11.77;100.00;99640.44;4869812;29;20057;-74
2024/02/10 08:02:25;;;;;;;3.30;3.00;;;;;;;11.66;100.00;99611.72;4873400;29;20095;-73
2024/02/10 08:04:54;;;;;;;3.10;2.80;;;;;;;11.46;100.00;99558.66;4868428;29;20045;-77
2024/02/10 08:07:21;;;;;;;7.97;4.72;;;;;;;11.41;100.00;99533.31;4869793;29;20073;-74
2024/02/10 08:09:47;;;;;;;5.10;4.07;;;;;;;11.53;100.00;99519.09;4867785;29;20068;-75
2024/02/10 08:12:23;;;;;;;4.53;3.28;;;;;;;12.22;100.00;99637.88;4872836;29;20041;-77
2024/02/10 08:14:53;;;;;;;5.13;4.07;;;;;;;12.19;100.00;99606.38;4870793;29;20052;-75
2024/02/10 08:17:20;;;;;;;2.75;2.38;;;;;;;12.52;100.00;99625.03;4864738;29;20071;-77
2024/02/10 08:19:56;;;;;;;4.18;3.40;;;;;;;12.55;100.00;99632.84;4864933;29;20065;-75
2024/02/10 08:22:26;;;;;;;5.55;3.08;;;;;;;12.64;100.00;99643.19;4848303;29;20037;-75
2024/02/10 08:24:55;;;;;;;5.25;2.90;;;;;;;12.61;100.00;99641.47;4869450;29;20737;-74
2024/02/10 08:27:31;;;;;;;3.53;3.22;;;;;;;12.60;100.00;99623.13;4865213;29;20081;-75
2024/02/10 08:29:58;;;;;;;5.85;3.42;;;;;;;12.14;100.00;99524.94;4868199;29;20041;-75
2024/02/10 08:32:25;;;;;;;2.20;2.00;;;;;;;12.20;100.00;99543.25;4870000;29;20067;-75
2024/02/10 08:34:51;;;;;;;2.63;2.15;;;;;;;12.94;100.00;99632.91;4868828;29;20127;-74
2024/02/10 08:37:17;;;;;;;6.78;3.67;;;;;;;12.47;100.00;99551.44;4870867;29;20044;-76
2024/02/10 08:39:44;;;;;;;3.20;2.90;;;;;;;12.98;100.00;99640.69;4867574;29;20093;-74
2024/02/10 08:42:14;;;;;;;6.40;4.18;;;;;;;13.23;100.00;99638.38;4867520;29;20101;-72
2024/02/10 08:44:40;;;;;;;4.43;3.70;;;;;;;13.21;100.00;99618.25;4868157;29;20108;-74
2024/02/10 08:47:07;;;;;;;2.45;1.98;;;;;;;13.42;98.30;99633.56;4868067;29;20144;-74
2024/02/10 08:49:36;;;;;;;4.72;3.42;;;;;;;13.48;95.39;99640.44;4864838;29;20044;-73
2024/02/10 08:52:15;;;;;;;2.67;2.45;;;;;;;13.16;93.56;99576.19;4871538;29;20078;-74
2024/02/10 08:54:41;;;;;;;3.75;3.10;;;;;;;13.66;92.83;99647.91;4869740;29;20136;-74
2024/02/10 08:57:09;;;;;;;8.65;4.47;;;;;;;13.74;92.00;99639.78;4870115;29;20068;-74
2024/02/10 08:59:40;;;;;;;1.95;1.75;;;;;;;13.82;89.02;99632.56;4867319;29;20056;-73
2024/02/10 09:02:06;;;;;;;7.55;4.28;;;;;;;13.93;86.51;99637.56;4845092;29;20124;-74
2024/02/10 09:04:34;;;;;;;6.20;5.60;;;;;;;13.93;85.41;99642.84;4864597;29;20037;-73
2024/02/10 09:07:00;;;;;;;2.40;2.20;;;;;;;13.97;85.18;99644.47;4871297;29;20033;-73
2024/02/10 09:09:29;;;;;;;3.30;1.85;;;;;;;13.56;81.58;99556.78;4862047;29;20051;-73
2024/02/10 09:11:54;;;;;;;2.95;2.53;;;;;;;13.97;80.89;99615.47;4846571;29;20294;-76
2024/02/10 09:14:20;;;;;;;3.95;3.55;;;;;;;14.17;78.74;99651.00;4863724;29;20438;-74
2024/02/10 09:16:46;;;;;;;8.27;3.60;;;;;;;13.79;77.42;99568.47;4865390;29;20068;-73
2024/02/10 09:19:18;;;;;;;2.50;1.67;;;;;;;14.24;78.23;99648.16;4867464;29;20354;-74
2024/02/10 09:21:46;;;;;;;2.15;1.52;;;;;;;14.18;77.89;99635.13;4849933;29;20692;-78
2024/02/10 09:24:15;;;;;;;2.95;2.72;;;;;;;13.72;74.55;99562.53;4865303;29;20064;-75
2024/02/10 09:26:41;;;;;;;3.45;3.03;;;;;;;14.29;75.24;99629.56;4868306;29;20088;-77
2024/02/10 09:29:06;;;;;;;3.55;2.60;;;;;;;14.04;74.35;99573.97;4864865;29;20076;-76
2024/02/10 09:31:32;;;;;;;3.95;3.05;;;;;;;14.59;73.77;99656.91;4858867;29;20057;-76
2024/02/10 09:34:01;;;;;;;4.50;3.30;;;;;;;14.74;74.77;99637.94;4862248;29;20033;-75
2024/02/10 09:36:28;;;;;;;2.88;2.55;;;;;;;14.81;75.01;99651.00;4861723;29;20092;-79
2024/02/10 09:38:54;;;;;;;4.18;2.50;;;;;;;15.00;73.77;99644.22;4859082;29;20049;-74
2024/02/10 09:41:20;;;;;;;6.60;2.22;;;;;;;14.95;71.67;99649.66;4866923;29;20056;-75
2024/02/10 09:43:48;;;;;;;2.58;2.33;;;;;;;15.07;70.81;99650.19;4865428;29;20569;-73
2024/02/10 09:46:15;;;;;;;3.75;2.30;;;;;;;15.14;70.19;99643.81;4865667;29;20033;-76
2024/02/10 09:48:48;;;;;;;3.17;2.50;;;;;;;15.25;71.08;99641.69;4863250;29;20116;-76
2024/02/10 09:51:15;;;;;;;3.45;2.65;;;;;;;15.15;69.98;99635.84;4860797;29;20057;-78
2024/02/10 09:53:41;;;;;;;2.58;2.33;;;;;;;14.85;69.20;99573.41;4862169;29;20143;-74
2024/02/10 09:56:13;;;;;;;3.03;2.70;;;;;;;15.25;68.95;99633.78;4871195;29;20063;-76
2024/02/10 09:58:41;;;;;;;3.63;1.77;;;;;;;15.41;68.54;99644.72;4867513;29;20106;-75
2024/02/10 10:01:08;;;;;;;1.42;1.30;;;;;;;14.91;66.98;99568.78;4865383;29;20501;-75
2024/02/10 10:03:35;;;;;;;1.30;1.20;;;;;;;15.41;66.52;99640.31;4848331;29;20135;-74
2024/02/10 10:06:05;;;;;;;1.38;1.23;;;;;;;15.57;67.46;99635.38;4865574;29;20077;-74
2024/02/10 10:08:37;;;;;;;2.63;1.85;;;;;;;15.58;65.74;99630.94;4860040;29;20057;-75
2024/02/10 10:11:04;;;;;;;1.13;1.00;;;;;;;15.12;66.66;99540.78;4854769;29;20075;-76
2024/02/10 10:13:32;;;;;;;1.42;1.33;;;;;;;15.67;65.25;99625.34;4862703;29;20064;-76
2024/02/10 10:15:58;;;;;;;5.03;1.45;;;;;;;15.79;65.93;99624.09;4852244;29;20045;-75
2024/02/10 10:18:24;;;;;;;2.35;2.15;;;;;;;15.66;65.91;99581.28;4855887;29;20057;-75
2024/02/10 10:20:52;;;;;;;3.33;2.03;;;;;;;16.03;65.23;99631.19;4862009;29;20052;-74
2024/02/10 10:23:18;;;;;;;3.13;2.25;;;;;;;15.48;65.84;99537.00;4862813;29;20065;-72
2024/02/10 10:25:47;;;;;;;3.53;2.70;;;;;;;16.09;64.92;99629.25;4864797;29;20383;-73
2024/02/10 10:28:16;;;;;;;3.15;2.55;;;;;;;16.02;64.01;99623.31;4864263;29;20124;-72
2024/02/10 10:30:46;;;;;;;1.58;1.48;;;;;;;15.72;64.24;99551.19;4867891;29;20141;-73
2024/02/10 10:33:12;;;;;;;2.78;2.30;;;;;;;15.59;64.38;99541.00;4866539;29;20141;-79
2024/02/10 10:35:40;;;;;;;2.30;2.10;;;;;;;16.04;63.81;99616.19;4863248;29;20524;-75
2024/02/10 10:38:09;;;;;;;10.73;2.20;;;;;;;16.20;63.90;99619.13;4860095;29;20060;-74
2024/02/10 10:40:36;;;;;;;4.28;3.88;;;;;;;15.70;64.12;99519.47;4862790;29;20048;-75
2024/02/10 10:43:05;;;;;;;3.00;2.55;;;;;;;15.65;63.79;99523.19;4867696;29;20040;-75
2024/02/10 10:45:36;;;;;;;4.68;2.42;;;;;;;15.97;67.73;99551.19;4864671;29;20065;-72
2024/02/10 10:48:02;;;;;;;3.88;3.58;;;;;;;15.67;65.52;99524.00;4871214;29;20136;-69
2024/02/10 10:50:30;;;;;;;3.67;3.35;;;;;;;15.68;65.28;99536.28;4870965;29;20418;-70
2024/02/10 10:53:07;;;;;;;2.13;1.83;;;;;;;15.45;64.84;99532.66;4869352;29;20064;-75
2024/02/10 10:55:43;;;;;;;5.90;3.78;;;;;;;15.97;65.15;99590.88;4870767;29;20041;-75
2024/02/10 10:58:13;;;;;;;3.72;3.38;;;;;;;16.16;64.81;99589.28;4873337;29;20033;-75
2024/02/10 11:00:42;;;;;;;4.60;2.60;;;;;;;15.72;64.64;99515.00;4871823;29;20520;-77
2024/02/10 11:03:08;;;;;;;1.63;1.52;;;;;;;16.14;65.33;99596.41;4872666;29;20060;-76
2024/02/10 11:05:40;;;;;;;2.55;1.92;;;;;;;16.01;64.92;99577.47;4871721;29;20144;-78
2024/02/10 11:08:10;;;;;;;4.25;3.83;;;;;;;16.06;64.59;99598.47;4868918;29;20049;-74
2024/02/10 11:10:48;;;;;;;10.77;3.33;;;;;;;15.59;65.41;99526.88;4866726;29;20045;-73
2024/02/10 11:13:28;;;;;;;3.38;3.00;;;;;;;15.36;66.97;99515.34;4871927;29;20701;-75
2024/02/10 11:16:15;;;;;;;2.47;1.67;;;;;;;15.50;67.94;99522.81;4873014;29;20049;-75
2024/02/10 11:18:56;;;;;;;5.47;2.70;;;;;;;16.02;69.04;99608.28;4870910;29;20506;-74
2024/02/10 11:21:21;;;;;;;4.03;3.42;;;;;;;16.07;70.81;99594.91;4867992;29;20041;-75
2024/02/10 11:24:18;;;;;;;4.32;3.05;;;;;;;15.89;68.68;99577.03;4869882;29;20060;-76
2024/02/10 11:26:45;;;;;;;24.33;4.95;;;;;;;15.51;68.28;99518.38;4870110;29;20049;-74
2024/02/10 11:29:18;;;;;;;4.47;4.07;;;;;;;15.78;68.09;99607.38;4869192;29;20053;-74
2024/02/10 11:31:44;;;;;;;9.57;8.32;;;;;;;15.57;67.74;99534.91;4867995;29;20053;-76
2024/02/10 11:34:14;;;;;;;4.55;4.13;;;;;;;15.50;69.29;99519.28;4873647;29;20052;-76